sensor_id;sensor_type;location;lat;lon;timestamp;P1;durP1;ratioP1;P2;durP2;ratioP2
9007;SDS011;4539;51.424;6.762;2022-07-23T00:00:16;7.10;;;5.30;;
9007;SDS011;4539;51.424;6.762;2022-07-23T00:02:44;7.63;;;5.13;;
9007;SDS011;4539;51.424;6.762;2022-07-23T00:05:11;7.70;;;5.10;;
9007;SDS011;4539;51.424;6.762;2022-07-23T00:07:38;7.27;;;5.20;;
9007;SDS011;4539;51.424;6.762;2022-07-23T00:10:04;7.40;;;5.13;;
9007;SDS011;4539;51.424;6.762;2022-07-23T00:12:32;9.33;;;5.57;;
9007;SDS011;4539;51.424;6.762;2022-07-23T00:14:58;7.67;;;5.37;;
9007;SDS011;4539;51.424;6.762;2022-07-23T00:17:25;11.33;;;5.33;;
9007;SDS011;4539;51.424;6.762;2022-07-23T00:19:52;7.47;;;5.43;;
9007;SDS011;4539;51.424;6.762;2022-07-23T00:22:20;8.60;;;5.07;;
9007;SDS011;4539;51.424;6.762;2022-07-23T00:24:46;12.00;;;5.50;;
9007;SDS011;4539;51.424;6.762;2022-07-23T00:27:33;11.63;;;5.37;;
9007;SDS011;4539;51.424;6.762;2022-07-23T00:29:59;5.70;;;5.10;;
9007;SDS011;4539;51.424;6.762;2022-07-23T00:32:26;8.43;;;6.13;;
9007;SDS011;4539;51.424;6.762;2022-07-23T00:35:13;9.47;;;5.73;;
9007;SDS011;4539;51.424;6.762;2022-07-23T00:37:39;8.77;;;5.90;;
9007;SDS011;4539;51.424;6.762;2022-07-23T00:40:06;10.70;;;5.77;;
9007;SDS011;4539;51.424;6.762;2022-07-23T00:42:33;7.90;;;5.30;;
9007;SDS011;4539;51.424;6.762;2022-07-23T00:44:59;14.40;;;6.20;;
9007;SDS011;4539;51.424;6.762;2022-07-23T00:47:26;8.97;;;6.10;;
9007;SDS011;4539;51.424;6.762;2022-07-23T00:49:53;9.73;;;6.17;;
9007;SDS011;4539;51.424;6.762;2022-07-23T00:52:19;10.03;;;6.03;;
9007;SDS011;4539;51.424;6.762;2022-07-23T00:54:46;12.47;;;6.50;;
9007;SDS011;4539;51.424;6.762;2022-07-23T00:57:12;12.27;;;6.80;;
9007;SDS011;4539;51.424;6.762;2022-07-23T00:59:40;8.83;;;6.03;;
9007;SDS011;4539;51.424;6.762;2022-07-23T01:02:07;9.73;;;6.13;;
9007;SDS011;4539;51.424;6.762;2022-07-23T01:04:33;9.50;;;6.67;;
9007;SDS011;4539;51.424;6.762;2022-07-23T01:07:00;10.53;;;6.60;;
9007;SDS011;4539;51.424;6.762;2022-07-23T01:09:27;11.03;;;7.13;;
9007;SDS011;4539;51.424;6.762;2022-07-23T01:11:55;9.60;;;6.50;;
9007;SDS011;4539;51.424;6.762;2022-07-23T01:14:23;11.07;;;6.80;;
9007;SDS011;4539;51.424;6.762;2022-07-23T01:16:50;10.43;;;6.97;;
9007;SDS011;4539;51.424;6.762;2022-07-23T01:19:17;13.57;;;6.27;;
9007;SDS011;4539;51.424;6.762;2022-07-23T01:21:47;9.63;;;6.77;;
9007;SDS011;4539;51.424;6.762;2022-07-23T01:24:17;11.17;;;6.67;;
9007;SDS011;4539;51.424;6.762;2022-07-23T01:26:46;8.80;;;6.53;;
9007;SDS011;4539;51.424;6.762;2022-07-23T01:29:13;7.57;;;6.73;;
9007;SDS011;4539;51.424;6.762;2022-07-23T01:31:40;11.77;;;7.00;;
9007;SDS011;4539;51.424;6.762;2022-07-23T01:34:07;8.47;;;6.23;;
9007;SDS011;4539;51.424;6.762;2022-07-23T01:36:34;11.07;;;7.13;;
9007;SDS011;4539;51.424;6.762;2022-07-23T01:39:02;13.40;;;7.23;;
9007;SDS011;4539;51.424;6.762;2022-07-23T01:41:30;12.80;;;6.43;;
9007;SDS011;4539;51.424;6.762;2022-07-23T01:43:58;10.27;;;6.50;;
9007;SDS011;4539;51.424;6.762;2022-07-23T01:46:24;10.53;;;6.70;;
9007;SDS011;4539;51.424;6.762;2022-07-23T01:48:51;10.47;;;6.83;;
9007;SDS011;4539;51.424;6.762;2022-07-23T01:51:18;8.80;;;6.67;;
9007;SDS011;4539;51.424;6.762;2022-07-23T01:53:44;13.40;;;7.03;;
9007;SDS011;4539;51.424;6.762;2022-07-23T01:56:11;9.47;;;7.00;;
9007;SDS011;4539;51.424;6.762;2022-07-23T01:58:38;8.80;;;6.10;;
9007;SDS011;4539;51.424;6.762;2022-07-23T02:01:04;9.13;;;6.83;;
9007;SDS011;4539;51.424;6.762;2022-07-23T02:03:31;13.23;;;7.23;;
9007;SDS011;4539;51.424;6.762;2022-07-23T02:05:58;8.87;;;7.10;;
9007;SDS011;4539;51.424;6.762;2022-07-23T02:08:24;10.07;;;7.00;;
9007;SDS011;4539;51.424;6.762;2022-07-23T02:10:51;10.50;;;7.03;;
9007;SDS011;4539;51.424;6.762;2022-07-23T02:13:18;13.50;;;7.03;;
9007;SDS011;4539;51.424;6.762;2022-07-23T02:15:47;8.97;;;6.83;;
9007;SDS011;4539;51.424;6.762;2022-07-23T02:18:14;11.37;;;7.67;;
9007;SDS011;4539;51.424;6.762;2022-07-23T02:20:41;8.10;;;7.30;;
9007;SDS011;4539;51.424;6.762;2022-07-23T02:23:08;10.00;;;6.77;;
9007;SDS011;4539;51.424;6.762;2022-07-23T02:25:35;12.43;;;7.40;;
9007;SDS011;4539;51.424;6.762;2022-07-23T02:28:01;10.03;;;6.97;;
9007;SDS011;4539;51.424;6.762;2022-07-23T02:30:29;10.70;;;7.90;;
9007;SDS011;4539;51.424;6.762;2022-07-23T02:32:55;8.33;;;7.47;;
9007;SDS011;4539;51.424;6.762;2022-07-23T02:35:22;9.37;;;8.27;;
9007;SDS011;4539;51.424;6.762;2022-07-23T02:37:49;9.80;;;8.37;;
9007;SDS011;4539;51.424;6.762;2022-07-23T02:40:16;10.40;;;7.70;;
9007;SDS011;4539;51.424;6.762;2022-07-23T02:42:43;10.10;;;8.33;;
9007;SDS011;4539;51.424;6.762;2022-07-23T02:45:10;11.63;;;8.20;;
9007;SDS011;4539;51.424;6.762;2022-07-23T02:47:36;9.23;;;7.47;;
9007;SDS011;4539;51.424;6.762;2022-07-23T02:50:03;10.73;;;7.63;;
9007;SDS011;4539;51.424;6.762;2022-07-23T02:52:31;10.53;;;7.60;;
9007;SDS011;4539;51.424;6.762;2022-07-23T02:54:57;10.77;;;8.07;;
9007;SDS011;4539;51.424;6.762;2022-07-23T02:57:24;10.87;;;8.33;;
9007;SDS011;4539;51.424;6.762;2022-07-23T02:59:51;10.43;;;8.10;;
9007;SDS011;4539;51.424;6.762;2022-07-23T03:02:17;10.63;;;8.37;;
9007;SDS011;4539;51.424;6.762;2022-07-23T03:04:44;9.83;;;8.23;;
9007;SDS011;4539;51.424;6.762;2022-07-23T03:07:11;10.77;;;7.97;;
9007;SDS011;4539;51.424;6.762;2022-07-23T03:09:37;8.37;;;7.23;;
9007;SDS011;4539;51.424;6.762;2022-07-23T03:12:04;9.50;;;7.93;;
9007;SDS011;4539;51.424;6.762;2022-07-23T03:14:38;11.90;;;7.97;;
9007;SDS011;4539;51.424;6.762;2022-07-23T03:17:05;12.97;;;8.53;;
9007;SDS011;4539;51.424;6.762;2022-07-23T03:19:32;11.17;;;8.40;;
9007;SDS011;4539;51.424;6.762;2022-07-23T03:21:59;11.33;;;7.87;;
9007;SDS011;4539;51.424;6.762;2022-07-23T03:24:25;9.80;;;7.60;;
9007;SDS011;4539;51.424;6.762;2022-07-23T03:27:14;10.23;;;8.00;;
9007;SDS011;4539;51.424;6.762;2022-07-23T03:29:41;9.53;;;7.37;;
9007;SDS011;4539;51.424;6.762;2022-07-23T03:32:07;13.17;;;8.17;;
9007;SDS011;4539;51.424;6.762;2022-07-23T03:34:34;12.67;;;7.40;;
9007;SDS011;4539;51.424;6.762;2022-07-23T03:37:01;10.73;;;8.03;;
9007;SDS011;4539;51.424;6.762;2022-07-23T03:39:28;10.20;;;8.07;;
9007;SDS011;4539;51.424;6.762;2022-07-23T03:41:55;8.93;;;7.43;;
9007;SDS011;4539;51.424;6.762;2022-07-23T03:44:21;13.47;;;8.13;;
9007;SDS011;4539;51.424;6.762;2022-07-23T03:46:48;8.07;;;7.23;;
9007;SDS011;4539;51.424;6.762;2022-07-23T03:49:15;8.50;;;7.60;;
9007;SDS011;4539;51.424;6.762;2022-07-23T03:51:43;9.30;;;7.33;;
9007;SDS011;4539;51.424;6.762;2022-07-23T03:54:09;10.23;;;7.87;;
9007;SDS011;4539;51.424;6.762;2022-07-23T03:56:36;12.03;;;7.80;;
9007;SDS011;4539;51.424;6.762;2022-07-23T03:59:03;11.87;;;7.80;;
9007;SDS011;4539;51.424;6.762;2022-07-23T04:01:30;11.10;;;8.20;;
9007;SDS011;4539;51.424;6.762;2022-07-23T04:03:58;11.97;;;7.33;;
9007;SDS011;4539;51.424;6.762;2022-07-23T04:06:25;9.93;;;7.67;;
9007;SDS011;4539;51.424;6.762;2022-07-23T04:08:51;10.83;;;7.60;;
9007;SDS011;4539;51.424;6.762;2022-07-23T04:11:18;9.30;;;7.80;;
9007;SDS011;4539;51.424;6.762;2022-07-23T04:13:44;9.30;;;7.40;;
9007;SDS011;4539;51.424;6.762;2022-07-23T04:16:11;8.73;;;7.63;;
9007;SDS011;4539;51.424;6.762;2022-07-23T04:18:38;12.10;;;8.60;;
9007;SDS011;4539;51.424;6.762;2022-07-23T04:21:04;9.60;;;7.83;;
9007;SDS011;4539;51.424;6.762;2022-07-23T04:23:31;10.17;;;8.60;;
9007;SDS011;4539;51.424;6.762;2022-07-23T04:25:58;10.03;;;8.50;;
9007;SDS011;4539;51.424;6.762;2022-07-23T04:28:24;10.10;;;8.50;;
9007;SDS011;4539;51.424;6.762;2022-07-23T04:30:51;10.33;;;8.97;;
9007;SDS011;4539;51.424;6.762;2022-07-23T04:33:17;9.83;;;8.87;;
9007;SDS011;4539;51.424;6.762;2022-07-23T04:35:44;12.00;;;8.93;;
9007;SDS011;4539;51.424;6.762;2022-07-23T04:38:10;9.83;;;8.83;;
9007;SDS011;4539;51.424;6.762;2022-07-23T04:40:37;10.43;;;9.27;;
9007;SDS011;4539;51.424;6.762;2022-07-23T04:43:03;11.43;;;9.73;;
9007;SDS011;4539;51.424;6.762;2022-07-23T04:45:31;10.97;;;9.33;;
9007;SDS011;4539;51.424;6.762;2022-07-23T04:47:57;10.27;;;9.37;;
9007;SDS011;4539;51.424;6.762;2022-07-23T04:50:24;10.80;;;9.43;;
9007;SDS011;4539;51.424;6.762;2022-07-23T04:52:51;15.80;;;10.03;;
9007;SDS011;4539;51.424;6.762;2022-07-23T04:55:18;12.90;;;9.53;;
9007;SDS011;4539;51.424;6.762;2022-07-23T04:57:44;11.93;;;9.53;;
9007;SDS011;4539;51.424;6.762;2022-07-23T05:00:11;12.87;;;9.13;;
9007;SDS011;4539;51.424;6.762;2022-07-23T05:02:38;10.53;;;9.23;;
9007;SDS011;4539;51.424;6.762;2022-07-23T05:05:04;11.50;;;9.40;;
9007;SDS011;4539;51.424;6.762;2022-07-23T05:07:31;11.17;;;9.47;;
9007;SDS011;4539;51.424;6.762;2022-07-23T05:09:58;12.23;;;9.20;;
9007;SDS011;4539;51.424;6.762;2022-07-23T05:12:24;13.17;;;8.67;;
9007;SDS011;4539;51.424;6.762;2022-07-23T05:14:51;11.13;;;9.10;;
9007;SDS011;4539;51.424;6.762;2022-07-23T05:17:19;11.93;;;8.80;;
9007;SDS011;4539;51.424;6.762;2022-07-23T05:19:45;12.00;;;9.60;;
9007;SDS011;4539;51.424;6.762;2022-07-23T05:22:12;10.70;;;9.60;;
9007;SDS011;4539;51.424;6.762;2022-07-23T05:24:38;13.27;;;9.83;;
9007;SDS011;4539;51.424;6.762;2022-07-23T05:27:05;10.63;;;9.53;;
9007;SDS011;4539;51.424;6.762;2022-07-23T05:29:31;11.73;;;9.20;;
9007;SDS011;4539;51.424;6.762;2022-07-23T05:31:58;12.00;;;9.27;;
9007;SDS011;4539;51.424;6.762;2022-07-23T05:34:24;12.17;;;9.20;;
9007;SDS011;4539;51.424;6.762;2022-07-23T05:36:51;11.00;;;8.80;;
9007;SDS011;4539;51.424;6.762;2022-07-23T05:39:17;12.67;;;8.97;;
9007;SDS011;4539;51.424;6.762;2022-07-23T05:41:44;11.53;;;9.07;;
9007;SDS011;4539;51.424;6.762;2022-07-23T05:44:11;12.10;;;9.30;;
9007;SDS011;4539;51.424;6.762;2022-07-23T05:46:37;10.73;;;9.10;;
9007;SDS011;4539;51.424;6.762;2022-07-23T05:49:04;10.07;;;9.07;;
9007;SDS011;4539;51.424;6.762;2022-07-23T05:51:31;13.63;;;9.60;;
9007;SDS011;4539;51.424;6.762;2022-07-23T05:53:58;11.30;;;9.93;;
9007;SDS011;4539;51.424;6.762;2022-07-23T05:56:25;10.07;;;8.63;;
9007;SDS011;4539;51.424;6.762;2022-07-23T05:58:52;12.07;;;10.80;;
9007;SDS011;4539;51.424;6.762;2022-07-23T06:01:18;14.37;;;10.70;;
9007;SDS011;4539;51.424;6.762;2022-07-23T06:03:45;13.73;;;11.23;;
9007;SDS011;4539;51.424;6.762;2022-07-23T06:06:12;13.37;;;10.17;;
9007;SDS011;4539;51.424;6.762;2022-07-23T06:08:39;11.90;;;10.67;;
9007;SDS011;4539;51.424;6.762;2022-07-23T06:11:05;15.80;;;12.20;;
9007;SDS011;4539;51.424;6.762;2022-07-23T06:13:32;16.23;;;10.93;;
9007;SDS011;4539;51.424;6.762;2022-07-23T06:15:58;17.23;;;12.30;;
9007;SDS011;4539;51.424;6.762;2022-07-23T06:18:25;16.77;;;12.43;;
9007;SDS011;4539;51.424;6.762;2022-07-23T06:20:51;18.07;;;12.07;;
9007;SDS011;4539;51.424;6.762;2022-07-23T06:28:37;14.67;;;12.77;;
9007;SDS011;4539;51.424;6.762;2022-07-23T06:33:38;17.07;;;12.90;;
9007;SDS011;4539;51.424;6.762;2022-07-23T06:36:05;18.30;;;13.00;;
9007;SDS011;4539;51.424;6.762;2022-07-23T06:41:07;15.03;;;12.77;;
9007;SDS011;4539;51.424;6.762;2022-07-23T06:43:33;17.33;;;12.37;;
9007;SDS011;4539;51.424;6.762;2022-07-23T06:46:00;15.03;;;11.60;;
9007;SDS011;4539;51.424;6.762;2022-07-23T06:48:27;17.30;;;13.23;;
9007;SDS011;4539;51.424;6.762;2022-07-23T06:51:03;18.87;;;16.40;;
9007;SDS011;4539;51.424;6.762;2022-07-23T06:53:30;19.23;;;15.37;;
9007;SDS011;4539;51.424;6.762;2022-07-23T06:55:57;24.80;;;16.80;;
9007;SDS011;4539;51.424;6.762;2022-07-23T06:58:24;19.87;;;14.50;;
9007;SDS011;4539;51.424;6.762;2022-07-23T07:00:50;19.07;;;14.47;;
9007;SDS011;4539;51.424;6.762;2022-07-23T07:03:18;18.43;;;14.30;;
9007;SDS011;4539;51.424;6.762;2022-07-23T07:05:45;15.30;;;12.77;;
9007;SDS011;4539;51.424;6.762;2022-07-23T07:08:11;15.40;;;12.90;;
9007;SDS011;4539;51.424;6.762;2022-07-23T07:10:38;20.50;;;12.37;;
9007;SDS011;4539;51.424;6.762;2022-07-23T07:13:04;17.60;;;13.67;;
9007;SDS011;4539;51.424;6.762;2022-07-23T07:15:31;18.30;;;16.07;;
9007;SDS011;4539;51.424;6.762;2022-07-23T07:17:57;24.23;;;17.83;;
9007;SDS011;4539;51.424;6.762;2022-07-23T07:20:24;19.67;;;14.10;;
9007;SDS011;4539;51.424;6.762;2022-07-23T07:22:50;20.70;;;14.30;;
9007;SDS011;4539;51.424;6.762;2022-07-23T07:25:17;23.10;;;17.00;;
9007;SDS011;4539;51.424;6.762;2022-07-23T07:27:43;22.33;;;17.43;;
9007;SDS011;4539;51.424;6.762;2022-07-23T07:30:10;25.87;;;17.27;;
9007;SDS011;4539;51.424;6.762;2022-07-23T07:32:37;20.57;;;16.03;;
9007;SDS011;4539;51.424;6.762;2022-07-23T07:35:21;22.03;;;17.07;;
9007;SDS011;4539;51.424;6.762;2022-07-23T07:37:48;20.77;;;16.53;;
9007;SDS011;4539;51.424;6.762;2022-07-23T07:40:14;24.40;;;16.90;;
9007;SDS011;4539;51.424;6.762;2022-07-23T07:42:47;19.83;;;15.27;;
9007;SDS011;4539;51.424;6.762;2022-07-23T07:45:15;16.23;;;13.33;;
9007;SDS011;4539;51.424;6.762;2022-07-23T07:47:42;22.87;;;15.67;;
9007;SDS011;4539;51.424;6.762;2022-07-23T07:50:09;18.30;;;15.53;;
9007;SDS011;4539;51.424;6.762;2022-07-23T07:52:37;15.67;;;14.07;;
9007;SDS011;4539;51.424;6.762;2022-07-23T07:55:05;20.50;;;17.17;;
9007;SDS011;4539;51.424;6.762;2022-07-23T07:57:34;16.90;;;15.10;;
9007;SDS011;4539;51.424;6.762;2022-07-23T08:00:02;16.27;;;13.67;;
9007;SDS011;4539;51.424;6.762;2022-07-23T08:02:45;15.47;;;10.23;;
9007;SDS011;4539;51.424;6.762;2022-07-23T08:05:23;9.37;;;8.33;;
9007;SDS011;4539;51.424;6.762;2022-07-23T08:07:54;11.53;;;8.00;;
9007;SDS011;4539;51.424;6.762;2022-07-23T08:10:21;9.97;;;6.23;;
9007;SDS011;4539;51.424;6.762;2022-07-23T08:12:50;10.60;;;5.73;;
9007;SDS011;4539;51.424;6.762;2022-07-23T08:15:22;8.13;;;4.87;;
9007;SDS011;4539;51.424;6.762;2022-07-23T08:17:50;8.47;;;4.60;;
9007;SDS011;4539;51.424;6.762;2022-07-23T08:20:18;7.80;;;4.37;;
9007;SDS011;4539;51.424;6.762;2022-07-23T08:25:27;7.57;;;4.53;;
9007;SDS011;4539;51.424;6.762;2022-07-23T08:27:56;7.50;;;5.00;;
9007;SDS011;4539;51.424;6.762;2022-07-23T08:30:23;5.83;;;4.67;;
9007;SDS011;4539;51.424;6.762;2022-07-23T08:32:57;6.23;;;4.47;;
9007;SDS011;4539;51.424;6.762;2022-07-23T08:35:28;6.83;;;5.50;;
9007;SDS011;4539;51.424;6.762;2022-07-23T08:38:00;8.00;;;4.60;;
9007;SDS011;4539;51.424;6.762;2022-07-23T08:40:30;6.47;;;3.97;;
9007;SDS011;4539;51.424;6.762;2022-07-23T08:42:58;8.27;;;4.27;;
9007;SDS011;4539;51.424;6.762;2022-07-23T08:45:26;5.97;;;4.13;;
9007;SDS011;4539;51.424;6.762;2022-07-23T08:47:57;6.70;;;4.93;;
9007;SDS011;4539;51.424;6.762;2022-07-23T08:50:37;8.13;;;4.40;;
9007;SDS011;4539;51.424;6.762;2022-07-23T08:53:07;5.87;;;4.30;;
9007;SDS011;4539;51.424;6.762;2022-07-23T08:55:34;8.13;;;4.53;;
9007;SDS011;4539;51.424;6.762;2022-07-23T08:58:01;7.40;;;4.67;;
9007;SDS011;4539;51.424;6.762;2022-07-23T09:00:29;10.63;;;5.40;;
9007;SDS011;4539;51.424;6.762;2022-07-23T09:02:58;7.93;;;5.70;;
9007;SDS011;4539;51.424;6.762;2022-07-23T09:05:25;9.17;;;5.37;;
9007;SDS011;4539;51.424;6.762;2022-07-23T09:08:05;6.57;;;5.40;;
9007;SDS011;4539;51.424;6.762;2022-07-23T09:10:57;9.93;;;5.70;;
9007;SDS011;4539;51.424;6.762;2022-07-23T09:13:36;8.90;;;5.73;;
9007;SDS011;4539;51.424;6.762;2022-07-23T09:16:27;6.30;;;4.73;;
9007;SDS011;4539;51.424;6.762;2022-07-23T09:21:24;8.47;;;5.37;;
9007;SDS011;4539;51.424;6.762;2022-07-23T09:24:01;10.87;;;5.20;;
9007;SDS011;4539;51.424;6.762;2022-07-23T09:29:11;8.97;;;4.87;;
9007;SDS011;4539;51.424;6.762;2022-07-23T09:31:58;8.67;;;4.40;;
9007;SDS011;4539;51.424;6.762;2022-07-23T09:34:27;7.70;;;3.47;;
9007;SDS011;4539;51.424;6.762;2022-07-23T09:36:57;4.43;;;3.20;;
9007;SDS011;4539;51.424;6.762;2022-07-23T09:39:34;7.33;;;3.70;;
9007;SDS011;4539;51.424;6.762;2022-07-23T09:44:49;7.13;;;3.37;;
9007;SDS011;4539;51.424;6.762;2022-07-23T09:47:18;6.00;;;4.40;;
9007;SDS011;4539;51.424;6.762;2022-07-23T09:52:28;5.40;;;3.40;;
9007;SDS011;4539;51.424;6.762;2022-07-23T09:55:02;4.10;;;3.00;;
9007;SDS011;4539;51.424;6.762;2022-07-23T09:57:31;6.27;;;3.57;;
9007;SDS011;4539;51.424;6.762;2022-07-23T10:00:00;5.00;;;3.40;;
9007;SDS011;4539;51.424;6.762;2022-07-23T10:02:32;6.13;;;3.37;;
9007;SDS011;4539;51.424;6.762;2022-07-23T10:04:59;7.33;;;3.40;;
9007;SDS011;4539;51.424;6.762;2022-07-23T10:07:27;9.00;;;3.23;;
9007;SDS011;4539;51.424;6.762;2022-07-23T10:09:57;4.97;;;3.47;;
9007;SDS011;4539;51.424;6.762;2022-07-23T10:12:25;4.83;;;2.90;;
9007;SDS011;4539;51.424;6.762;2022-07-23T10:15:11;4.70;;;3.33;;
9007;SDS011;4539;51.424;6.762;2022-07-23T10:17:37;5.73;;;3.27;;
9007;SDS011;4539;51.424;6.762;2022-07-23T10:20:04;8.03;;;4.00;;
9007;SDS011;4539;51.424;6.762;2022-07-23T10:22:33;5.80;;;3.57;;
9007;SDS011;4539;51.424;6.762;2022-07-23T10:41:35;4.90;;;3.33;;
9007;SDS011;4539;51.424;6.762;2022-07-23T10:49:49;4.43;;;2.77;;
9007;SDS011;4539;51.424;6.762;2022-07-23T10:52:25;3.57;;;2.37;;
9007;SDS011;4539;51.424;6.762;2022-07-23T10:54:56;4.93;;;2.50;;
9007;SDS011;4539;51.424;6.762;2022-07-23T10:57:50;4.53;;;3.10;;
9007;SDS011;4539;51.424;6.762;2022-07-23T11:00:21;3.97;;;2.30;;
9007;SDS011;4539;51.424;6.762;2022-07-23T11:02:52;5.27;;;2.80;;
9007;SDS011;4539;51.424;6.762;2022-07-23T11:05:24;4.43;;;2.77;;
9007;SDS011;4539;51.424;6.762;2022-07-23T11:10:35;3.27;;;2.03;;
9007;SDS011;4539;51.424;6.762;2022-07-23T11:32:11;4.07;;;1.90;;
9007;SDS011;4539;51.424;6.762;2022-07-23T11:34:46;4.13;;;2.00;;
9007;SDS011;4539;51.424;6.762;2022-07-23T11:40:06;3.30;;;2.17;;
9007;SDS011;4539;51.424;6.762;2022-07-23T11:42:35;4.53;;;2.67;;
9007;SDS011;4539;51.424;6.762;2022-07-23T11:45:04;2.73;;;2.10;;
9007;SDS011;4539;51.424;6.762;2022-07-23T11:47:35;4.47;;;2.13;;
9007;SDS011;4539;51.424;6.762;2022-07-23T11:50:03;6.10;;;2.60;;
9007;SDS011;4539;51.424;6.762;2022-07-23T11:52:32;3.60;;;2.40;;
9007;SDS011;4539;51.424;6.762;2022-07-23T11:55:04;2.93;;;2.10;;
9007;SDS011;4539;51.424;6.762;2022-07-23T11:57:39;4.33;;;2.60;;
9007;SDS011;4539;51.424;6.762;2022-07-23T12:00:17;3.13;;;2.20;;
9007;SDS011;4539;51.424;6.762;2022-07-23T12:02:49;4.87;;;2.53;;
9007;SDS011;4539;51.424;6.762;2022-07-23T12:05:18;5.03;;;3.40;;
9007;SDS011;4539;51.424;6.762;2022-07-23T12:07:47;4.37;;;2.50;;
9007;SDS011;4539;51.424;6.762;2022-07-23T12:10:20;3.80;;;2.50;;
9007;SDS011;4539;51.424;6.762;2022-07-23T12:12:51;3.37;;;2.60;;
9007;SDS011;4539;51.424;6.762;2022-07-23T12:15:20;3.80;;;2.60;;
9007;SDS011;4539;51.424;6.762;2022-07-23T12:17:50;5.13;;;2.60;;
9007;SDS011;4539;51.424;6.762;2022-07-23T12:20:21;3.53;;;2.53;;
9007;SDS011;4539;51.424;6.762;2022-07-23T12:22:50;4.93;;;2.50;;
9007;SDS011;4539;51.424;6.762;2022-07-23T12:25:20;4.07;;;2.80;;
9007;SDS011;4539;51.424;6.762;2022-07-23T12:28:05;5.73;;;2.83;;
9007;SDS011;4539;51.424;6.762;2022-07-23T12:30:41;4.83;;;2.90;;
9007;SDS011;4539;51.424;6.762;2022-07-23T12:33:10;4.27;;;2.43;;
9007;SDS011;4539;51.424;6.762;2022-07-23T12:35:43;2.27;;;2.00;;
9007;SDS011;4539;51.424;6.762;2022-07-23T12:38:15;3.10;;;2.60;;
9007;SDS011;4539;51.424;6.762;2022-07-23T12:40:44;2.33;;;2.13;;
9007;SDS011;4539;51.424;6.762;2022-07-23T12:43:18;3.30;;;2.47;;
9007;SDS011;4539;51.424;6.762;2022-07-23T12:45:56;3.17;;;2.50;;
9007;SDS011;4539;51.424;6.762;2022-07-23T12:48:35;4.87;;;2.40;;
9007;SDS011;4539;51.424;6.762;2022-07-23T12:51:07;3.77;;;2.50;;
9007;SDS011;4539;51.424;6.762;2022-07-23T12:53:47;4.43;;;2.20;;
9007;SDS011;4539;51.424;6.762;2022-07-23T12:56:17;3.67;;;2.63;;
9007;SDS011;4539;51.424;6.762;2022-07-23T12:59:05;2.97;;;2.33;;
9007;SDS011;4539;51.424;6.762;2022-07-23T13:01:35;2.80;;;2.00;;
9007;SDS011;4539;51.424;6.762;2022-07-23T13:04:06;3.03;;;2.60;;
9007;SDS011;4539;51.424;6.762;2022-07-23T13:06:54;3.77;;;2.30;;
9007;SDS011;4539;51.424;6.762;2022-07-23T13:09:25;2.73;;;2.30;;
9007;SDS011;4539;51.424;6.762;2022-07-23T13:11:59;3.63;;;2.60;;
9007;SDS011;4539;51.424;6.762;2022-07-23T13:14:26;5.07;;;2.80;;
9007;SDS011;4539;51.424;6.762;2022-07-23T13:16:54;2.90;;;2.53;;
9007;SDS011;4539;51.424;6.762;2022-07-23T13:19:24;4.87;;;2.60;;
9007;SDS011;4539;51.424;6.762;2022-07-23T13:21:53;5.67;;;2.37;;
9007;SDS011;4539;51.424;6.762;2022-07-23T13:24:20;3.63;;;2.60;;
9007;SDS011;4539;51.424;6.762;2022-07-23T13:26:47;3.87;;;2.53;;
9007;SDS011;4539;51.424;6.762;2022-07-23T13:29:16;4.87;;;2.53;;
9007;SDS011;4539;51.424;6.762;2022-07-23T13:31:45;2.67;;;2.33;;
9007;SDS011;4539;51.424;6.762;2022-07-23T13:34:13;4.27;;;2.57;;
9007;SDS011;4539;51.424;6.762;2022-07-23T13:36:40;2.50;;;2.30;;
9007;SDS011;4539;51.424;6.762;2022-07-23T13:39:07;3.80;;;2.20;;
9007;SDS011;4539;51.424;6.762;2022-07-23T13:41:35;3.77;;;2.50;;
9007;SDS011;4539;51.424;6.762;2022-07-23T13:44:03;3.10;;;2.77;;
9007;SDS011;4539;51.424;6.762;2022-07-23T13:46:29;5.17;;;2.87;;
9007;SDS011;4539;51.424;6.762;2022-07-23T13:48:56;4.47;;;2.47;;
9007;SDS011;4539;51.424;6.762;2022-07-23T13:51:23;7.30;;;6.03;;
9007;SDS011;4539;51.424;6.762;2022-07-23T13:53:51;6.47;;;2.73;;
9007;SDS011;4539;51.424;6.762;2022-07-23T13:56:18;2.93;;;2.23;;
9007;SDS011;4539;51.424;6.762;2022-07-23T13:58:45;4.33;;;2.50;;
9007;SDS011;4539;51.424;6.762;2022-07-23T14:01:12;3.53;;;2.40;;
9007;SDS011;4539;51.424;6.762;2022-07-23T14:03:39;3.43;;;2.20;;
9007;SDS011;4539;51.424;6.762;2022-07-23T14:06:06;2.40;;;2.00;;
9007;SDS011;4539;51.424;6.762;2022-07-23T14:08:42;3.53;;;2.77;;
9007;SDS011;4539;51.424;6.762;2022-07-23T14:11:10;5.07;;;2.70;;
9007;SDS011;4539;51.424;6.762;2022-07-23T14:13:37;3.10;;;2.80;;
9007;SDS011;4539;51.424;6.762;2022-07-23T14:16:04;4.53;;;3.30;;
9007;SDS011;4539;51.424;6.762;2022-07-23T14:18:31;4.13;;;2.73;;
9007;SDS011;4539;51.424;6.762;2022-07-23T14:20:59;2.83;;;2.60;;
9007;SDS011;4539;51.424;6.762;2022-07-23T14:23:27;6.40;;;2.50;;
9007;SDS011;4539;51.424;6.762;2022-07-23T14:25:55;4.30;;;2.67;;
9007;SDS011;4539;51.424;6.762;2022-07-23T14:28:23;3.40;;;2.73;;
9007;SDS011;4539;51.424;6.762;2022-07-23T14:30:50;3.97;;;2.80;;
9007;SDS011;4539;51.424;6.762;2022-07-23T14:33:17;4.23;;;2.77;;
9007;SDS011;4539;51.424;6.762;2022-07-23T14:35:44;2.73;;;2.40;;
9007;SDS011;4539;51.424;6.762;2022-07-23T14:38:10;3.77;;;2.97;;
9007;SDS011;4539;51.424;6.762;2022-07-23T14:40:39;4.00;;;2.60;;
9007;SDS011;4539;51.424;6.762;2022-07-23T14:43:06;3.63;;;3.23;;
9007;SDS011;4539;51.424;6.762;2022-07-23T14:45:35;4.97;;;2.90;;
9007;SDS011;4539;51.424;6.762;2022-07-23T14:48:02;4.93;;;3.60;;
9007;SDS011;4539;51.424;6.762;2022-07-23T14:50:29;7.67;;;2.90;;
9007;SDS011;4539;51.424;6.762;2022-07-23T14:52:56;3.50;;;2.77;;
9007;SDS011;4539;51.424;6.762;2022-07-23T14:55:22;6.70;;;4.73;;
9007;SDS011;4539;51.424;6.762;2022-07-23T14:57:49;5.30;;;3.37;;
9007;SDS011;4539;51.424;6.762;2022-07-23T15:00:16;4.10;;;3.03;;
9007;SDS011;4539;51.424;6.762;2022-07-23T15:02:42;4.37;;;2.97;;
9007;SDS011;4539;51.424;6.762;2022-07-23T15:05:18;5.13;;;3.60;;
9007;SDS011;4539;51.424;6.762;2022-07-23T15:07:45;4.63;;;3.50;;
9007;SDS011;4539;51.424;6.762;2022-07-23T15:10:13;5.73;;;3.30;;
9007;SDS011;4539;51.424;6.762;2022-07-23T15:12:40;3.40;;;3.10;;
9007;SDS011;4539;51.424;6.762;2022-07-23T15:15:06;3.90;;;2.67;;
9007;SDS011;4539;51.424;6.762;2022-07-23T15:17:35;3.17;;;2.87;;
9007;SDS011;4539;51.424;6.762;2022-07-23T15:20:02;5.30;;;2.87;;
9007;SDS011;4539;51.424;6.762;2022-07-23T15:22:29;4.87;;;4.13;;
9007;SDS011;4539;51.424;6.762;2022-07-23T15:24:56;5.43;;;3.83;;
9007;SDS011;4539;51.424;6.762;2022-07-23T15:27:23;5.50;;;3.50;;
9007;SDS011;4539;51.424;6.762;2022-07-23T15:29:50;4.80;;;3.00;;
9007;SDS011;4539;51.424;6.762;2022-07-23T15:32:17;10.87;;;9.20;;
9007;SDS011;4539;51.424;6.762;2022-07-23T15:34:44;4.53;;;3.60;;
9007;SDS011;4539;51.424;6.762;2022-07-23T15:37:13;5.37;;;4.70;;
9007;SDS011;4539;51.424;6.762;2022-07-23T15:39:39;3.47;;;3.10;;
9007;SDS011;4539;51.424;6.762;2022-07-23T15:42:06;3.40;;;2.77;;
9007;SDS011;4539;51.424;6.762;2022-07-23T15:44:40;3.83;;;2.67;;
9007;SDS011;4539;51.424;6.762;2022-07-23T15:47:11;6.70;;;2.77;;
9007;SDS011;4539;51.424;6.762;2022-07-23T15:49:39;3.70;;;2.73;;
9007;SDS011;4539;51.424;6.762;2022-07-23T15:52:06;4.97;;;2.90;;
9007;SDS011;4539;51.424;6.762;2022-07-23T15:54:36;4.03;;;3.20;;
9007;SDS011;4539;51.424;6.762;2022-07-23T15:57:05;4.63;;;3.20;;
9007;SDS011;4539;51.424;6.762;2022-07-23T15:59:34;4.53;;;2.90;;
9007;SDS011;4539;51.424;6.762;2022-07-23T16:02:01;4.87;;;3.10;;
9007;SDS011;4539;51.424;6.762;2022-07-23T16:04:28;7.53;;;3.47;;
9007;SDS011;4539;51.424;6.762;2022-07-23T16:06:55;7.83;;;3.57;;
9007;SDS011;4539;51.424;6.762;2022-07-23T16:09:23;5.20;;;3.43;;
9007;SDS011;4539;51.424;6.762;2022-07-23T16:11:49;4.13;;;3.63;;
9007;SDS011;4539;51.424;6.762;2022-07-23T16:14:16;6.63;;;3.37;;
9007;SDS011;4539;51.424;6.762;2022-07-23T16:16:43;4.80;;;3.40;;
9007;SDS011;4539;51.424;6.762;2022-07-23T16:19:10;3.90;;;3.13;;
9007;SDS011;4539;51.424;6.762;2022-07-23T16:21:36;4.43;;;3.03;;
9007;SDS011;4539;51.424;6.762;2022-07-23T16:24:03;4.40;;;3.00;;
9007;SDS011;4539;51.424;6.762;2022-07-23T16:26:30;3.00;;;2.80;;